Time;durP1;ratioP1;P1;durP2;ratioP2;P2;SDS_P1;SDS_P2;PMS_P1;PMS_P2;Temp;Humidity;BMP_temperature;BMP_pressure;BME280_temperature;BME280_humidity;BME280_pressure;Samples;Min_cycle;Max_cycle;Signal;HPM_P1;HPM_P2
2022/07/19 00:02:10;;;;;;;;;;;;;;;14.52;67.49;101046.54;1405266;91;20828;-76
2022/07/19 00:04:37;;;;;;;;;;;;;;;14.53;66.24;101044.20;1356692;92;20269;-76
2022/07/19 00:07:04;;;;;;;;;;;;;;;14.51;67.91;101048.34;1440495;91;20895;-76
2022/07/19 00:09:30;;;;;;;;;;;;;;;14.53;66.58;101049.53;1506824;91;20390;-76
2022/07/19 00:11:57;;;;;;;;;;;;;;;14.48;68.25;101041.17;1507062;91;20440;-76
2022/07/19 00:14:23;;;;;;;;;;;;;;;14.49;65.76;101048.16;1431502;91;20269;-76
2022/07/19 00:16:51;;;;;;;;;;;;;;;14.44;67.33;101045.48;1506635;91;20254;-76
2022/07/19 00:19:17;;;;;;;;;;;;;;;14.45;66.75;101048.47;1507329;91;20268;-76
2022/07/19 00:21:46;;;;;;;;;;;;;;;14.48;66.32;101049.16;1368762;91;20292;-76
2022/07/19 00:24:12;;;;;;;;;;;;;;;14.48;66.16;101049.16;1470793;91;20252;-75
2022/07/19 00:26:40;;;;;;;;;;;;;;;14.45;65.57;101048.47;1411051;91;20262;-75
2022/07/19 00:29:07;;;;;;;;;;;;;;;14.44;66.98;101048.14;1507108;91;20254;-76
2022/07/19 00:31:33;;;;;;;;;;;;;;;14.47;67.19;101051.47;1395387;91;20321;-75
2022/07/19 00:33:59;;;;;;;;;;;;;;;14.47;67.06;101052.80;1376894;91;20291;-75
2022/07/19 00:36:24;;;;;;;;;;;;;;;14.40;67.43;101055.27;1502962;91;20351;-77
2022/07/19 00:38:50;;;;;;;;;;;;;;;14.36;67.04;101057.91;1402435;91;20299;-76
2022/07/19 00:41:16;;;;;;;;;;;;;;;14.33;67.93;101063.05;1381227;91;20255;-77
2022/07/19 00:43:43;;;;;;;;;;;;;;;14.28;67.53;101060.52;1506627;91;20229;-76
2022/07/19 00:46:17;;;;;;;;;;;;;;;14.27;67.37;101059.69;1490684;91;20277;-76
2022/07/19 00:48:44;;;;;;;;;;;;;;;14.24;67.73;101062.64;1504403;91;20244;-76
2022/07/19 00:51:13;;;;;;;;;;;;;;;14.22;67.93;101059.31;1447652;93;20303;-76
2022/07/19 00:53:42;;;;;;;;;;;;;;;14.19;67.65;101059.63;1487240;91;20287;-76
2022/07/19 00:56:09;;;;;;;;;;;;;;;14.15;67.07;101051.59;1494886;91;20237;-76
2022/07/19 00:58:37;;;;;;;;;;;;;;;14.12;67.89;101061.22;1404771;91;20366;-76
2022/07/19 01:01:07;;;;;;;;;;;;;;;14.07;68.00;101055.52;1374438;91;20886;-76
2022/07/19 01:03:39;;;;;;;;;;;;;;;14.05;68.67;101064.18;1484565;91;21318;-76
2022/07/19 01:06:06;;;;;;;;;;;;;;;14.05;68.69;101060.19;1349137;91;20837;-76
2022/07/19 01:08:32;;;;;;;;;;;;;;;14.02;68.73;101059.17;1428097;91;20276;-76
2022/07/19 01:10:58;;;;;;;;;;;;;;;14.01;68.47;101063.63;1506743;91;20262;-76
2022/07/19 01:13:24;;;;;;;;;;;;;;;13.99;68.74;101055.81;1388046;91;20269;-76
2022/07/19 01:15:51;;;;;;;;;;;;;;;13.98;68.30;101052.83;1503038;91;20244;-75
2022/07/19 01:18:19;;;;;;;;;;;;;;;13.98;69.25;101051.50;1502217;92;20355;-76
2022/07/19 01:20:46;;;;;;;;;;;;;;;13.95;68.22;101045.16;1477036;92;20341;-75
2022/07/19 01:23:12;;;;;;;;;;;;;;;13.94;68.51;101051.45;1503611;91;20403;-76
2022/07/19 01:25:37;;;;;;;;;;;;;;;13.93;69.50;101047.63;1393168;93;20266;-76
2022/07/19 01:28:08;;;;;;;;;;;;;;;13.93;69.26;101045.80;1352043;91;20292;-76
2022/07/19 01:30:35;;;;;;;;;;;;;;;13.93;69.13;101047.13;1507132;91;20269;-75
2022/07/19 01:33:02;;;;;;;;;;;;;;;13.91;69.27;101046.44;1506738;91;20236;-76
2022/07/19 01:35:29;;;;;;;;;;;;;;;13.92;68.72;101048.59;1506749;91;20284;-76
2022/07/19 01:37:55;;;;;;;;;;;;;;;13.92;67.80;101041.44;1442804;91;21319;-76
2022/07/19 01:40:21;;;;;;;;;;;;;;;13.90;68.94;101046.61;1356217;91;20392;-77
2022/07/19 01:42:48;;;;;;;;;;;;;;;13.90;68.02;101046.11;1353247;91;21209;-78
2022/07/19 01:45:14;;;;;;;;;;;;;;;13.88;69.62;101048.08;1348738;93;20637;-77
2022/07/19 01:47:41;;;;;;;;;;;;;;;13.85;71.07;101044.39;1444573;94;20302;-76
2022/07/19 01:50:10;;;;;;;;;;;;;;;13.78;71.42;101047.31;1391348;94;20264;-76
2022/07/19 01:52:36;;;;;;;;;;;;;;;13.73;71.62;101046.96;1382153;93;20407;-76
2022/07/19 01:55:03;;;;;;;;;;;;;;;13.67;71.60;101047.58;1380863;95;20408;-76
2022/07/19 01:57:29;;;;;;;;;;;;;;;13.63;72.01;101040.87;1381554;95;20377;-76
2022/07/19 01:59:55;;;;;;;;;;;;;;;13.61;70.93;101038.84;1384097;94;20482;-76
2022/07/19 02:02:21;;;;;;;;;;;;;;;13.57;70.19;101037.50;1380643;94;21045;-76
2022/07/19 02:04:47;;;;;;;;;;;;;;;13.54;71.72;101037.30;1388188;94;20314;-76
2022/07/19 02:07:13;;;;;;;;;;;;;;;13.47;71.35;101034.42;1386907;94;20847;-75
2022/07/19 02:09:39;;;;;;;;;;;;;;;13.39;71.08;101030.35;1391392;94;20297;-76
2022/07/19 02:12:05;;;;;;;;;;;;;;;13.33;71.42;101044.75;1393526;94;20837;-75
2022/07/19 02:14:31;;;;;;;;;;;;;;;13.27;71.15;101037.71;1392017;94;20371;-75
2022/07/19 02:16:57;;;;;;;;;;;;;;;13.28;71.61;101039.88;1381084;94;21708;-75
2022/07/19 02:19:25;;;;;;;;;;;;;;;13.31;70.94;101047.55;1393936;94;20328;-75
2022/07/19 02:21:51;;;;;;;;;;;;;;;13.28;70.31;101039.38;1391736;94;20387;-75
2022/07/19 02:24:16;;;;;;;;;;;;;;;13.27;70.18;101042.20;1397285;94;20386;-75
2022/07/19 02:26:42;;;;;;;;;;;;;;;13.26;70.20;101036.52;1407830;92;20305;-75
2022/07/19 02:29:09;;;;;;;;;;;;;;;13.22;70.59;101036.45;1413448;92;20276;-75
2022/07/19 02:31:35;;;;;;;;;;;;;;;13.20;70.68;101044.56;1396100;94;20293;-75
2022/07/19 02:34:01;;;;;;;;;;;;;;;13.15;71.34;101048.19;1395687;94;20977;-75
2022/07/19 02:36:27;;;;;;;;;;;;;;;13.16;71.19;101050.34;1390833;94;20527;-75
2022/07/19 02:38:53;;;;;;;;;;;;;;;13.14;71.61;101051.81;1393294;94;20306;-75
2022/07/19 02:41:19;;;;;;;;;;;;;;;13.10;71.93;101053.94;1390775;92;21091;-79
2022/07/19 02:43:45;;;;;;;;;;;;;;;13.08;71.39;101062.54;1411986;92;20275;-80
2022/07/19 02:46:11;;;;;;;;;;;;;;;13.03;71.31;101066.16;1412854;92;20305;-80
2022/07/19 02:48:37;;;;;;;;;;;;;;;12.97;70.67;101064.06;1410969;92;20291;-80
2022/07/19 02:51:03;;;;;;;;;;;;;;;12.91;71.97;101062.50;1409251;92;20852;-80
2022/07/19 02:53:29;;;;;;;;;;;;;;;12.85;71.70;101063.92;1409310;92;20379;-80
2022/07/19 02:55:55;;;;;;;;;;;;;;;12.80;73.14;101062.19;1413032;92;20305;-80
2022/07/19 02:58:21;;;;;;;;;;;;;;;12.77;73.33;101065.14;1408723;92;20834;-80
2022/07/19 03:00:47;;;;;;;;;;;;;;;12.75;73.63;101064.47;1386689;92;20381;-79
2022/07/19 03:05:58;;;;;;;;;;;;;;;12.68;74.02;101072.66;1380560;94;20291;-79
2022/07/19 03:08:24;;;;;;;;;;;;;;;12.65;74.33;101069.31;1377044;94;20433;-80
2022/07/19 03:10:49;;;;;;;;;;;;;;;12.61;73.80;101065.78;1377915;94;20821;-79
2022/07/19 03:13:15;;;;;;;;;;;;;;;12.58;73.94;101063.41;1379452;94;20262;-80
2022/07/19 03:15:41;;;;;;;;;;;;;;;12.58;73.51;101062.92;1385700;94;21563;-81
2022/07/19 03:18:07;;;;;;;;;;;;;;;12.55;73.50;101060.55;1386735;94;20322;-82
2022/07/19 03:20:33;;;;;;;;;;;;;;;12.54;73.38;101061.52;1384392;94;20858;-82
2022/07/19 03:23:00;;;;;;;;;;;;;;;12.55;73.16;101061.88;1377477;93;20337;-81
2022/07/19 03:25:25;;;;;;;;;;;;;;;12.56;73.37;101062.22;1393130;93;21812;-81
2022/07/19 03:27:51;;;;;;;;;;;;;;;12.56;73.32;101055.58;1414999;92;20316;-80
2022/07/19 03:30:17;;;;;;;;;;;;;;;12.59;73.57;101059.77;1415897;92;20281;-80
2022/07/19 03:32:43;;;;;;;;;;;;;;;12.61;72.72;101064.45;1411916;91;20808;-80
2022/07/19 03:35:09;;;;;;;;;;;;;;;12.65;74.12;101067.98;1419994;92;20326;-80
2022/07/19 03:37:35;;;;;;;;;;;;;;;12.70;74.58;101077.34;1411924;92;20324;-81
2022/07/19 03:40:00;;;;;;;;;;;;;;;12.71;74.09;101076.36;1416934;91;20969;-80
2022/07/19 03:42:26;;;;;;;;;;;;;;;12.75;74.02;101069.29;1407158;92;20322;-81
2022/07/19 03:44:52;;;;;;;;;;;;;;;12.83;73.65;101069.86;1420836;92;20854;-81
2022/07/19 03:47:18;;;;;;;;;;;;;;;12.92;72.70;101068.15;1411898;92;20609;-81
2022/07/19 03:49:44;;;;;;;;;;;;;;;13.03;72.39;101068.81;1420524;92;21726;-80
2022/07/19 03:52:11;;;;;;;;;;;;;;;13.15;72.92;101075.23;1420726;92;20310;-81
2022/07/19 03:54:37;;;;;;;;;;;;;;;13.23;72.64;101075.33;1426308;92;20303;-81
2022/07/19 03:57:03;;;;;;;;;;;;;;;13.35;71.70;101078.17;1413844;92;20345;-81
2022/07/19 03:59:29;;;;;;;;;;;;;;;13.46;71.48;101073.95;1422541;91;20490;-81
2022/07/19 04:01:55;;;;;;;;;;;;;;;13.56;71.42;101082.38;1426736;91;20981;-81
2022/07/19 04:04:21;;;;;;;;;;;;;;;13.61;70.78;101088.05;1427728;91;21122;-81
2022/07/19 04:06:47;;;;;;;;;;;;;;;13.64;70.92;101087.78;1428418;91;20401;-81
2022/07/19 04:09:13;;;;;;;;;;;;;;;13.67;70.93;101090.97;1437056;91;20314;-80
2022/07/19 04:11:39;;;;;;;;;;;;;;;13.71;70.58;101097.64;1422784;91;20828;-80
2022/07/19 04:14:05;;;;;;;;;;;;;;;13.79;70.58;101102.21;1429180;91;20262;-81
2022/07/19 04:16:31;;;;;;;;;;;;;;;13.85;70.09;101098.94;1433871;91;20426;-81
2022/07/19 04:18:57;;;;;;;;;;;;;;;13.93;69.83;101103.51;1432724;90;20312;-80
2022/07/19 04:21:22;;;;;;;;;;;;;;;14.01;69.61;101103.55;1449794;90;20345;-81
2022/07/19 04:23:48;;;;;;;;;;;;;;;14.09;69.53;101106.78;1441913;90;20320;-81
2022/07/19 04:26:14;;;;;;;;;;;;;;;14.18;70.87;101108.52;1428137;91;21059;-81
2022/07/19 04:28:40;;;;;;;;;;;;;;;14.27;71.05;101111.61;1429409;91;20335;-81
2022/07/19 04:31:06;;;;;;;;;;;;;;;14.37;70.41;101108.34;1427280;91;20797;-81
2022/07/19 04:33:32;;;;;;;;;;;;;;;14.47;70.97;101106.89;1427023;91;20379;-80
2022/07/19 04:35:58;;;;;;;;;;;;;;;14.58;70.33;101110.66;1426654;91;20842;-80
2022/07/19 04:38:23;;;;;;;;;;;;;;;14.69;70.06;101110.91;1429548;91;20424;-80
2022/07/19 04:40:49;;;;;;;;;;;;;;;14.79;69.61;101112.97;1422857;91;20886;-82
2022/07/19 04:43:18;;;;;;;;;;;;;;;14.92;69.48;101118.36;1429519;91;20365;-82
2022/07/19 04:45:44;;;;;;;;;;;;;;;15.04;69.60;101111.73;1427069;91;21139;-81
2022/07/19 04:48:11;;;;;;;;;;;;;;;15.19;68.88;101111.48;1432950;91;20462;-82
2022/07/19 04:50:38;;;;;;;;;;;;;;;15.32;68.67;101106.52;1426697;91;20492;-81
2022/07/19 04:53:04;;;;;;;;;;;;;;;15.46;67.61;101105.56;1429977;90;20425;-81
2022/07/19 04:55:30;;;;;;;;;;;;;;;15.61;67.27;101101.76;1426549;91;20379;-81
2022/07/19 04:57:56;;;;;;;;;;;;;;;15.74;67.14;101104.31;1433114;91;20305;-81
2022/07/19 05:00:22;;;;;;;;;;;;;;;15.88;66.53;101103.31;1427657;91;20328;-82
2022/07/19 05:02:48;;;;;;;;;;;;;;;16.04;65.86;101109.17;1418978;91;20467;-90
2022/07/19 05:05:14;;;;;;;;;;;;;;;16.19;65.56;101106.16;1422760;91;20379;-90
2022/07/19 05:07:40;;;;;;;;;;;;;;;16.34;65.30;101111.17;1415050;91;20366;-90
2022/07/19 05:10:08;;;;;;;;;;;;;;;16.49;64.52;101103.81;1428147;91;20421;-90
2022/07/19 05:12:33;;;;;;;;;;;;;;;16.64;64.34;101106.10;1426595;91;20849;-89
2022/07/19 05:14:59;;;;;;;;;;;;;;;16.79;63.25;101103.08;1421786;91;20493;-89
2022/07/19 05:17:25;;;;;;;;;;;;;;;16.93;62.76;101098.03;1427090;91;20857;-90
2022/07/19 05:19:52;;;;;;;;;;;;;;;17.08;62.84;101105.14;1426875;91;20306;-90
2022/07/19 05:22:18;;;;;;;;;;;;;;;17.25;62.60;101093.03;1426890;91;20440;-90
2022/07/19 05:24:43;;;;;;;;;;;;;;;17.40;61.86;101097.96;1432063;91;20856;-89
2022/07/19 05:27:09;;;;;;;;;;;;;;;17.57;61.77;101101.37;1423408;91;20592;-90
2022/07/19 05:29:35;;;;;;;;;;;;;;;17.74;61.11;101100.77;1423810;91;20935;-89
2022/07/19 05:32:02;;;;;;;;;;;;;;;17.91;60.99;101098.84;1433359;91;20397;-89
2022/07/19 05:34:28;;;;;;;;;;;;;;;18.09;60.64;101101.20;1427717;91;20321;-90
2022/07/19 05:36:54;;;;;;;;;;;;;;;18.28;60.29;101103.38;1428426;91;20328;-90
2022/07/19 05:39:20;;;;;;;;;;;;;;;18.41;59.38;101096.90;1426594;91;20835;-88
2022/07/19 05:41:46;;;;;;;;;;;;;;;18.57;58.03;101097.22;1436796;91;20313;-88
2022/07/19 05:44:12;;;;;;;;;;;;;;;18.75;57.66;101098.23;1428886;91;20321;-89
2022/07/19 05:46:40;;;;;;;;;;;;;;;18.93;58.34;101097.84;1431479;91;20798;-89
2022/07/19 05:49:05;;;;;;;;;;;;;;;19.09;57.35;101096.31;1431191;91;21794;-88
2022/07/19 05:51:31;;;;;;;;;;;;;;;19.22;54.88;101089.44;1433735;91;20366;-89
2022/07/19 05:53:57;;;;;;;;;;;;;;;19.32;53.86;101090.81;1431022;91;20314;-89
2022/07/19 05:56:23;;;;;;;;;;;;;;;19.48;54.48;101088.91;1425433;91;20453;-88
2022/07/19 05:58:49;;;;;;;;;;;;;;;19.63;54.31;101091.05;1426241;91;20312;-89
2022/07/19 06:01:17;;;;;;;;;;;;;;;19.76;53.86;101094.39;1429444;90;20291;-86
2022/07/19 06:03:45;;;;;;;;;;;;;;;19.92;52.94;101094.66;1426611;91;20358;-91
2022/07/19 06:06:11;;;;;;;;;;;;;;;20.09;53.91;101097.39;1436771;91;20334;-91
2022/07/19 06:08:36;;;;;;;;;;;;;;;20.29;53.29;101097.56;1434961;90;20396;-89
2022/07/19 06:11:02;;;;;;;;;;;;;;;20.48;53.67;101098.71;1425287;91;20863;-89
2022/07/19 06:13:28;;;;;;;;;;;;;;;20.67;54.10;101100.73;1424915;91;20328;-89
2022/07/19 06:15:55;;;;;;;;;;;;;;;20.87;52.07;101097.34;1431809;91;20351;-89
2022/07/19 06:18:21;;;;;;;;;;;;;;;21.03;51.80;101098.36;1429900;91;20381;-89
2022/07/19 06:20:47;;;;;;;;;;;;;;;21.08;49.66;101097.22;1426694;91;20328;-91
2022/07/19 06:23:13;;;;;;;;;;;;;;;21.19;50.83;101093.95;1417979;91;20896;-91
2022/07/19 06:25:39;;;;;;;;;;;;;;;21.29;49.80;101090.05;1429831;91;20340;-90
2022/07/19 06:28:05;;;;;;;;;;;;;;;21.41;50.64;101085.79;1419891;91;20433;-90
2022/07/19 06:30:31;;;;;;;;;;;;;;;21.57;50.04;101081.88;1435592;91;20336;-89
2022/07/19 06:32:57;;;;;;;;;;;;;;;21.75;50.69;101085.31;1432456;91;20342;-89
2022/07/19 06:35:23;;;;;;;;;;;;;;;21.94;50.77;101087.20;1427722;91;20868;-90
2022/07/19 06:37:49;;;;;;;;;;;;;;;22.15;50.36;101081.30;1429578;91;20426;-90
2022/07/19 06:40:14;;;;;;;;;;;;;;;22.32;49.88;101080.39;1433280;91;20358;-90
2022/07/19 06:42:40;;;;;;;;;;;;;;;22.42;46.99;101077.58;1431237;91;20328;-90
2022/07/19 06:45:07;;;;;;;;;;;;;;;22.58;48.01;101076.81;1428718;91;20322;-91
2022/07/19 06:47:33;;;;;;;;;;;;;;;22.67;46.68;101082.28;1430480;91;20321;-90
2022/07/19 06:49:58;;;;;;;;;;;;;;;22.79;47.27;101084.66;1424432;91;20276;-92
2022/07/19 06:52:25;;;;;;;;;;;;;;;22.95;46.83;101085.55;1424877;91;20329;-92
2022/07/19 06:54:51;;;;;;;;;;;;;;;23.12;46.53;101085.91;1433727;90;20288;-92
2022/07/19 06:57:22;;;;;;;;;;;;;;;23.23;45.17;101085.76;1409253;92;20322;-90
2022/07/19 06:59:48;;;;;;;;;;;;;;;23.38;44.49;101085.47;1429070;91;20337;-90
2022/07/19 07:02:15;;;;;;;;;;;;;;;23.52;44.86;101084.87;1429239;91;20305;-91
2022/07/19 07:04:40;;;;;;;;;;;;;;;23.64;44.10;101080.42;1424347;91;20350;-83
2022/07/19 07:07:06;;;;;;;;;;;;;;;23.80;44.19;101085.34;1427946;91;20328;-81
2022/07/19 07:09:32;;;;;;;;;;;;;;;23.95;43.85;101078.78;1436740;91;21033;-83
2022/07/19 07:11:59;;;;;;;;;;;;;;;24.05;42.17;101084.02;1426283;91;20328;-84
2022/07/19 07:14:26;;;;;;;;;;;;;;;24.18;43.02;101076.83;1426417;91;20418;-85
2022/07/19 07:16:52;;;;;;;;;;;;;;;24.28;40.30;101077.98;1427314;91;21291;-84
2022/07/19 07:19:18;;;;;;;;;;;;;;;24.32;39.50;101079.18;1428586;91;20292;-84
2022/07/19 07:21:46;;;;;;;;;;;;;;;24.49;41.09;101081.35;1413437;91;20364;-84
2022/07/19 07:24:12;;;;;;;;;;;;;;;24.67;41.75;101084.59;1425788;91;20433;-84
2022/07/19 07:26:39;;;;;;;;;;;;;;;24.85;40.82;101075.10;1419415;91;20330;-84
2022/07/19 07:29:05;;;;;;;;;;;;;;;24.98;39.32;101070.89;1429339;91;20306;-84
2022/07/19 07:31:31;;;;;;;;;;;;;;;25.14;38.18;101081.64;1427817;91;20432;-83
2022/07/19 07:33:58;;;;;;;;;;;;;;;25.27;39.20;101073.88;1430417;91;20320;-83
2022/07/19 07:36:24;;;;;;;;;;;;;;;25.36;39.23;101074.39;1427811;91;20387;-83
2022/07/19 07:38:50;;;;;;;;;;;;;;;25.47;38.64;101083.09;1429425;91;20431;-84
2022/07/19 07:41:16;;;;;;;;;;;;;;;25.51;35.72;101079.38;1426366;91;20540;-84
2022/07/19 07:43:42;;;;;;;;;;;;;;;25.55;34.55;101072.44;1426029;91;20399;-83
2022/07/19 07:46:07;;;;;;;;;;;;;;;25.63;34.15;101074.81;1428482;91;20350;-84
2022/07/19 07:48:34;;;;;;;;;;;;;;;25.65;33.51;101077.59;1425799;91;20440;-84
2022/07/19 07:51:00;;;;;;;;;;;;;;;25.68;30.97;101074.95;1435264;91;20315;-84
2022/07/19 07:53:25;;;;;;;;;;;;;;;25.85;33.86;101084.63;1428902;91;20357;-82
2022/07/19 07:55:51;;;;;;;;;;;;;;;25.92;32.52;101081.27;1427813;91;20306;-84
2022/07/19 07:58:23;;;;;;;;;;;;;;;25.98;34.30;101077.65;1429280;91;21210;-84
2022/07/19 08:00:49;;;;;;;;;;;;;;;26.16;34.67;101085.39;1431691;91;20440;-83
2022/07/19 08:03:18;;;;;;;;;;;;;;;26.29;34.90;101079.70;1419455;91;20999;-84
2022/07/19 08:05:47;;;;;;;;;;;;;;;26.42;34.35;101078.13;1425209;91;20350;-84
2022/07/19 08:08:14;;;;;;;;;;;;;;;26.58;34.98;101074.41;1430239;91;20320;-84
2022/07/19 08:10:41;;;;;;;;;;;;;;;26.67;31.46;101072.98;1507975;91;20314;-84
2022/07/19 08:13:07;;;;;;;;;;;;;;;26.80;33.56;101069.19;1507676;91;20247;-84
2022/07/19 08:15:38;;;;;;;;;;;;;;;26.92;33.69;101061.30;1492701;91;21000;-84
2022/07/19 08:18:05;;;;;;;;;;;;;;;27.04;32.72;101061.79;1507786;91;20347;-84
2022/07/19 08:20:31;;;;;;;;;;;;;;;27.08;32.30;101059.72;1451471;91;20359;-84
2022/07/19 08:22:57;;;;;;;;;;;;;;;27.15;32.66;101062.28;1507910;91;20268;-84
2022/07/19 08:25:32;;;;;;;;;;;;;;;27.20;31.63;101056.98;1474305;91;20322;-84
2022/07/19 08:27:58;;;;;;;;;;;;;;;27.33;31.74;101061.28;1497827;91;20247;-84
2022/07/19 08:30:30;;;;;;;;;;;;;;;27.42;31.86;101063.38;1417429;91;20436;-83
2022/07/19 08:32:56;;;;;;;;;;;;;;;27.54;32.86;101059.78;1353205;91;20276;-84
2022/07/19 08:35:22;;;;;;;;;;;;;;;27.67;32.08;101058.09;1490263;91;20272;-83
2022/07/19 08:37:49;;;;;;;;;;;;;;;27.78;31.96;101058.55;1506970;91;20806;-83
2022/07/19 08:40:16;;;;;;;;;;;;;;;27.88;32.03;101060.66;1448957;91;20299;-84
2022/07/19 08:42:42;;;;;;;;;;;;;;;27.97;31.63;101055.63;1428555;91;20476;-83
2022/07/19 08:45:10;;;;;;;;;;;;;;;27.77;28.53;101054.20;1423651;91;20343;-83
2022/07/19 08:47:38;;;;;;;;;;;;;;;27.79;28.85;101045.80;1382552;91;20380;-84
2022/07/19 08:50:07;;;;;;;;;;;;;;;27.83;29.08;101045.08;1491380;91;20277;-84
2022/07/19 08:52:37;;;;;;;;;;;;;;;27.92;28.51;101046.02;1507903;91;20885;-84
2022/07/19 08:55:04;;;;;;;;;;;;;;;27.83;28.27;101043.71;1499718;90;20329;-84
2022/07/19 09:00:16;;;;;;;;;;;;;;;28.00;28.84;101037.45;1467498;91;20329;-87
2022/07/19 09:03:03;;;;;;;;;;;;;;;28.10;28.12;101040.31;1506699;91;20359;-86
2022/07/19 09:05:31;;;;;;;;;;;;;;;28.22;28.10;101038.30;1413030;91;20344;-86
2022/07/19 09:08:15;;;;;;;;;;;;;;;28.21;27.93;101035.30;1508018;91;20334;-84
2022/07/19 09:11:14;;;;;;;;;;;;;;;28.33;29.40;101037.37;1417698;93;20456;-86
2022/07/19 09:13:43;;;;;;;;;;;;;;;28.44;27.29;101037.56;1425722;91;21071;-85
2022/07/19 09:16:09;;;;;;;;;;;;;;;28.58;28.52;101029.31;1419922;91;20321;-86
2022/07/19 09:18:35;;;;;;;;;;;;;;;28.77;29.57;101027.07;1427243;91;20336;-86
2022/07/19 09:21:04;;;;;;;;;;;;;;;28.85;28.43;101024.45;1426582;91;20328;-86
2022/07/19 09:23:31;;;;;;;;;;;;;;;28.88;26.67;101027.47;1431420;91;20463;-86
2022/07/19 09:26:02;;;;;;;;;;;;;;;29.06;28.13;101022.28;1428641;91;20425;-86
2022/07/19 09:28:31;;;;;;;;;;;;;;;29.02;26.59;101029.27;1430790;91;20373;-85
2022/07/19 09:30:58;;;;;;;;;;;;;;;29.17;26.73;101024.55;1423200;91;20353;-86
2022/07/19 09:33:27;;;;;;;;;;;;;;;29.19;27.17;101019.13;1508016;91;20299;-86
2022/07/19 09:36:06;;;;;;;;;;;;;;;29.26;26.15;101015.36;1507877;91;20366;-87
2022/07/19 09:38:34;;;;;;;;;;;;;;;29.39;26.17;101017.68;1489298;91;20301;-85
2022/07/19 09:41:16;;;;;;;;;;;;;;;29.59;27.26;101015.12;1413632;93;20264;-85
2022/07/19 09:43:58;;;;;;;;;;;;;;;29.78;28.25;101016.11;1498902;91;20247;-85
2022/07/19 09:46:36;;;;;;;;;;;;;;;29.97;27.83;101010.52;1355167;91;20292;-85
2022/07/19 09:49:12;;;;;;;;;;;;;;;30.21;28.92;101013.72;1507888;91;20285;-88
2022/07/19 09:51:40;;;;;;;;;;;;;;;30.41;27.86;101012.98;1491144;91;20319;-87
2022/07/19 09:54:08;;;;;;;;;;;;;;;30.48;25.65;101004.02;1376169;93;20836;-87
2022/07/19 09:56:37;;;;;;;;;;;;;;;30.56;26.67;101006.23;1507826;91;20384;-87
2022/07/19 09:59:04;;;;;;;;;;;;;;;30.50;26.10;101005.12;1497731;91;20317;-88
2022/07/19 10:01:31;;;;;;;;;;;;;;;30.47;25.98;101003.75;1435988;93;20287;-87
2022/07/19 10:04:00;;;;;;;;;;;;;;;30.54;26.75;101006.22;1501588;91;20451;-88
2022/07/19 10:06:28;;;;;;;;;;;;;;;30.61;25.38;100995.04;1458960;90;20262;-90
2022/07/19 10:08:58;;;;;;;;;;;;;;;30.56;24.87;101004.88;1507713;91;20270;-86
2022/07/19 10:11:24;;;;;;;;;;;;;;;30.58;25.03;100997.23;1507610;91;20277;-87
2022/07/19 10:13:51;;;;;;;;;;;;;;;30.62;24.75;101008.45;1507718;91;20329;-85
2022/07/19 10:16:21;;;;;;;;;;;;;;;30.61;24.65;101005.97;1353126;91;20269;-85
2022/07/19 10:19:05;;;;;;;;;;;;;;;30.62;25.79;101007.63;1410168;91;20417;-86
2022/07/19 10:21:31;;;;;;;;;;;;;;;30.39;24.07;101004.25;1426813;91;20902;-86
2022/07/19 10:23:58;;;;;;;;;;;;;;;30.29;23.52;101004.19;1428235;91;20335;-87
2022/07/19 10:26:39;;;;;;;;;;;;;;;30.22;23.23;101002.25;1427854;91;20320;-83
2022/07/19 10:29:18;;;;;;;;;;;;;;;30.35;24.44;100997.66;1355031;92;20280;-82
2022/07/19 10:31:47;;;;;;;;;;;;;;;30.50;23.50;100989.55;1371088;93;20361;-84
2022/07/19 10:34:22;;;;;;;;;;;;;;;30.70;24.46;100989.33;1480301;92;20287;-83
2022/07/19 10:36:49;;;;;;;;;;;;;;;30.89;24.64;100989.70;1485501;93;20422;-83
2022/07/19 10:39:20;;;;;;;;;;;;;;;31.01;23.75;100982.06;1485541;93;20257;-83
2022/07/19 10:42:19;;;;;;;;;;;;;;;30.94;23.35;100978.23;1373818;93;20354;-84
2022/07/19 10:45:00;;;;;;;;;;;;;;;30.94;23.35;100976.87;1485618;91;20366;-83
2022/07/19 10:47:37;;;;;;;;;;;;;;;31.12;23.01;100974.70;1502147;91;20280;-83
2022/07/19 10:50:08;;;;;;;;;;;;;;;30.79;22.17;100976.84;1506926;91;20321;-83
2022/07/19 10:52:46;;;;;;;;;;;;;;;30.99;23.88;100983.72;1448205;91;20396;-83
2022/07/19 10:55:29;;;;;;;;;;;;;;;30.97;23.69;100976.33;1507980;90;20285;-83
2022/07/19 10:58:10;;;;;;;;;;;;;;;31.15;24.09;100981.00;1496685;91;20236;-83
2022/07/19 11:00:49;;;;;;;;;;;;;;;31.22;23.38;100978.28;1399277;91;21237;-83
2022/07/19 11:03:26;;;;;;;;;;;;;;;31.30;24.24;100978.27;1446557;91;21295;-83
2022/07/19 11:05:58;;;;;;;;;;;;;;;31.38;23.31;100977.75;1427621;91;20351;-82
2022/07/19 11:08:38;;;;;;;;;;;;;;;31.39;24.01;100971.21;1427993;91;20468;-83
2022/07/19 11:11:07;;;;;;;;;;;;;;;31.57;24.60;100969.02;1429289;91;20335;-83
2022/07/19 11:13:35;;;;;;;;;;;;;;;31.58;23.77;100964.62;1428922;91;20365;-84
2022/07/19 11:16:02;;;;;;;;;;;;;;;31.65;23.19;100968.44;1426161;91;20371;-83
2022/07/19 11:18:30;;;;;;;;;;;;;;;31.75;23.42;100960.22;1502697;91;20262;-83
2022/07/19 11:20:58;;;;;;;;;;;;;;;31.95;24.12;100962.13;1449789;91;20381;-84
2022/07/19 11:23:26;;;;;;;;;;;;;;;31.96;22.35;100960.20;1507993;91;20388;-83
2022/07/19 11:25:54;;;;;;;;;;;;;;;31.87;24.06;100954.45;1460658;90;20944;-83
2022/07/19 11:28:22;;;;;;;;;;;;;;;31.84;23.87;100957.19;1408913;91;20336;-83
2022/07/19 11:30:48;;;;;;;;;;;;;;;32.01;23.15;100951.44;1429151;91;20320;-84
2022/07/19 11:33:17;;;;;;;;;;;;;;;32.12;21.81;100951.67;1425433;91;21143;-83
2022/07/19 11:35:59;;;;;;;;;;;;;;;32.24;23.21;100947.25;1427343;91;20357;-83
2022/07/19 11:38:40;;;;;;;;;;;;;;;32.29;23.32;100954.08;1427992;91;20342;-83
2022/07/19 11:41:17;;;;;;;;;;;;;;;32.36;22.49;100951.84;1429419;91;20871;-84
2022/07/19 11:44:07;;;;;;;;;;;;;;;32.25;21.63;100954.35;1427630;91;20313;-82
2022/07/19 11:46:37;;;;;;;;;;;;;;;31.93;21.22;100953.37;1429023;91;20335;-83
2022/07/19 11:49:05;;;;;;;;;;;;;;;31.75;21.11;100958.86;1427914;91;21051;-83
2022/07/19 11:51:32;;;;;;;;;;;;;;;31.68;21.65;100950.13;1426484;91;20327;-82
2022/07/19 11:53:59;;;;;;;;;;;;;;;31.86;22.39;100944.61;1422170;91;20435;-83
2022/07/19 11:56:27;;;;;;;;;;;;;;;32.04;22.68;100947.33;1508048;91;20313;-84
2022/07/19 11:58:56;;;;;;;;;;;;;;;32.21;22.28;100946.44;1414644;91;20373;-83
2022/07/19 12:01:25;;;;;;;;;;;;;;;32.28;20.66;100946.98;1354038;93;21004;-83
2022/07/19 12:03:55;;;;;;;;;;;;;;;32.34;21.29;100943.63;1488868;91;20269;-85
2022/07/19 12:06:42;;;;;;;;;;;;;;;32.38;22.13;100945.28;1499103;91;20797;-85
2022/07/19 12:09:15;;;;;;;;;;;;;;;32.34;21.28;100942.27;1507721;91;20261;-84
2022/07/19 12:11:44;;;;;;;;;;;;;;;32.42;21.53;100939.50;1390717;91;20344;-84
2022/07/19 12:14:32;;;;;;;;;;;;;;;32.34;21.52;100937.63;1491974;91;20261;-85
2022/07/19 12:17:14;;;;;;;;;;;;;;;32.42;21.78;100932.09;1507937;91;20269;-84
2022/07/19 12:19:45;;;;;;;;;;;;;;;32.51;21.58;100930.98;1353052;92;20806;-84
2022/07/19 12:22:35;;;;;;;;;;;;;;;32.57;21.19;100925.74;1490804;91;20276;-85
2022/07/19 12:25:10;;;;;;;;;;;;;;;32.65;22.48;100921.04;1457818;91;20872;-85
2022/07/19 12:27:36;;;;;;;;;;;;;;;32.34;20.41;100921.20;1437255;91;20873;-84
2022/07/19 12:30:04;;;;;;;;;;;;;;;32.23;20.71;100910.58;1469551;93;20406;-84
2022/07/19 12:32:32;;;;;;;;;;;;;;;32.27;20.74;100911.64;1382138;93;20292;-83
2022/07/19 12:35:03;;;;;;;;;;;;;;;32.29;20.87;100914.37;1486548;91;20278;-84
2022/07/19 12:37:36;;;;;;;;;;;;;;;32.40;21.78;100914.30;1427355;91;20431;-85
2022/07/19 12:40:10;;;;;;;;;;;;;;;32.57;21.53;100914.26;1429034;91;20425;-85
2022/07/19 12:42:46;;;;;;;;;;;;;;;32.73;21.72;100909.48;1503367;91;20262;-84
2022/07/19 12:45:23;;;;;;;;;;;;;;;32.81;20.44;100909.44;1368858;93;20331;-84
2022/07/19 12:47:50;;;;;;;;;;;;;;;32.95;21.71;100905.52;1502849;91;20383;-84